createdAt,value
2022-10-31T00:01:00.134Z,100.00
2022-10-31T00:03:27.421Z,100.00
2022-10-31T00:05:54.242Z,100.00
2022-10-31T00:08:20.869Z,100.00
2022-10-31T00:10:47.570Z,100.00
2022-10-31T00:13:15.476Z,100.00
2022-10-31T00:15:42.225Z,100.00
2022-10-31T00:18:10.149Z,100.00
2022-10-31T00:20:37.084Z,100.00
2022-10-31T00:23:04.836Z,100.00
2022-10-31T00:25:38.512Z,100.00
2022-10-31T00:28:07.146Z,100.00
2022-10-31T00:30:34.733Z,100.00
2022-10-31T00:33:01.731Z,100.00
2022-10-31T00:35:28.621Z,100.00
2022-10-31T00:37:55.211Z,100.00
2022-10-31T00:40:21.761Z,100.00
2022-10-31T00:42:48.351Z,100.00
2022-10-31T00:45:14.997Z,100.00
2022-10-31T00:47:41.461Z,100.00
2022-10-31T00:50:08.561Z,100.00
2022-10-31T00:52:35.395Z,100.00
2022-10-31T00:55:01.985Z,100.00
2022-10-31T00:57:28.516Z,100.00
2022-10-31T00:59:55.032Z,100.00
2022-10-31T01:02:21.695Z,100.00
2022-10-31T01:04:48.310Z,100.00
2022-10-31T01:07:15.112Z,100.00
2022-10-31T01:09:41.864Z,100.00
2022-10-31T01:12:08.562Z,100.00
2022-10-31T01:14:35.140Z,100.00
2022-10-31T01:17:02.002Z,100.00
2022-10-31T01:19:28.661Z,100.00
2022-10-31T01:21:56.220Z,100.00
2022-10-31T01:24:22.780Z,100.00
2022-10-31T01:26:49.302Z,100.00
2022-10-31T01:29:15.862Z,100.00
2022-10-31T01:31:42.457Z,100.00
2022-10-31T01:34:14.652Z,100.00
2022-10-31T01:36:41.633Z,100.00
2022-10-31T01:39:11.755Z,100.00
2022-10-31T01:41:41.795Z,100.00
2022-10-31T01:44:17.059Z,100.00
2022-10-31T01:47:06.497Z,100.00
2022-10-31T01:49:53.674Z,100.00
2022-10-31T01:52:29.900Z,100.00
2022-10-31T01:55:10.903Z,100.00
2022-10-31T01:57:41.340Z,100.00
2022-10-31T02:00:10.724Z,100.00
2022-10-31T02:02:37.361Z,100.00
2022-10-31T02:05:08.912Z,100.00
2022-10-31T02:08:05.387Z,100.00
2022-10-31T02:10:34.383Z,100.00
2022-10-31T02:13:03.908Z,100.00
2022-10-31T02:15:31.659Z,100.00
2022-10-31T02:17:59.088Z,100.00
2022-10-31T02:20:30.699Z,100.00
2022-10-31T02:23:21.678Z,100.00
2022-10-31T02:26:15.685Z,100.00
2022-10-31T02:29:07.887Z,100.00
2022-10-31T02:31:40.718Z,100.00
2022-10-31T02:34:18.688Z,100.00
2022-10-31T02:36:58.789Z,100.00
2022-10-31T02:39:52.469Z,100.00
2022-10-31T02:42:40.386Z,100.00
2022-10-31T02:45:27.016Z,100.00
2022-10-31T02:47:56.354Z,100.00
2022-10-31T02:50:29.561Z,100.00
2022-10-31T02:52:56.112Z,100.00
2022-10-31T02:55:25.398Z,100.00
2022-10-31T02:58:04.214Z,100.00
2022-10-31T03:00:39.530Z,100.00
2022-10-31T03:03:26.248Z,100.00
2022-10-31T03:06:07.405Z,100.00
2022-10-31T03:08:55.561Z,100.00
2022-10-31T03:11:29.778Z,100.00
2022-10-31T03:14:07.720Z,100.00
2022-10-31T03:16:47.835Z,100.00
2022-10-31T03:19:23.562Z,100.00
2022-10-31T03:22:00.651Z,100.00
2022-10-31T03:24:33.389Z,100.00
2022-10-31T03:27:01.894Z,100.00
2022-10-31T03:29:33.669Z,100.00
2022-10-31T03:32:08.967Z,100.00
2022-10-31T03:34:38.415Z,100.00
2022-10-31T03:37:08.478Z,100.00
2022-10-31T03:39:37.889Z,100.00
2022-10-31T03:42:12.381Z,100.00
2022-10-31T03:44:42.929Z,100.00
2022-10-31T03:47:09.750Z,100.00
2022-10-31T03:49:36.809Z,100.00
2022-10-31T03:52:32.432Z,100.00
2022-10-31T03:55:20.566Z,100.00
2022-10-31T03:57:59.106Z,100.00
2022-10-31T04:00:26.164Z,100.00
2022-10-31T04:03:05.417Z,100.00
2022-10-31T04:05:35.282Z,100.00
2022-10-31T04:08:05.804Z,100.00
2022-10-31T04:10:34.227Z,100.00
2022-10-31T04:13:15.146Z,100.00
2022-10-31T04:15:43.453Z,100.00
2022-10-31T04:18:10.117Z,100.00
2022-10-31T04:20:39.441Z,100.00
2022-10-31T04:23:15.005Z,100.00
2022-10-31T04:25:41.666Z,100.00
2022-10-31T04:28:08.274Z,100.00
2022-10-31T04:30:34.998Z,100.00
2022-10-31T04:33:01.936Z,100.00
2022-10-31T04:35:28.669Z,100.00
2022-10-31T04:37:55.456Z,100.00
2022-10-31T04:40:21.968Z,100.00
2022-10-31T04:42:48.529Z,100.00
2022-10-31T04:45:18.380Z,100.00
2022-10-31T04:47:47.682Z,100.00
2022-10-31T04:50:14.199Z,100.00
2022-10-31T04:52:42.079Z,100.00
2022-10-31T04:55:09.423Z,100.00
2022-10-31T04:57:48.407Z,100.00
2022-10-31T05:00:17.270Z,100.00
2022-10-31T05:02:46.303Z,100.00
2022-10-31T05:05:17.196Z,100.00
2022-10-31T05:07:45.175Z,100.00
2022-10-31T05:10:14.238Z,100.00
2022-10-31T05:12:58.995Z,100.00
2022-10-31T05:15:27.671Z,100.00
2022-10-31T05:17:55.337Z,100.00
2022-10-31T05:20:24.516Z,100.00
2022-10-31T05:22:53.576Z,100.00
2022-10-31T05:25:21.397Z,100.00
2022-10-31T05:27:49.660Z,100.00
2022-10-31T05:30:19.916Z,100.00
2022-10-31T05:32:48.148Z,100.00
2022-10-31T05:35:17.247Z,100.00
2022-10-31T05:37:43.757Z,100.00
2022-10-31T05:40:12.851Z,100.00
2022-10-31T05:42:40.611Z,100.00
2022-10-31T05:45:09.796Z,100.00
2022-10-31T05:47:36.415Z,100.00
2022-10-31T05:50:03.511Z,100.00
2022-10-31T05:52:29.998Z,100.00
2022-10-31T05:54:56.491Z,100.00
2022-10-31T05:57:23.239Z,100.00
2022-10-31T05:59:54.667Z,100.00
2022-10-31T06:02:21.893Z,100.00
2022-10-31T06:04:48.768Z,100.00
2022-10-31T06:07:15.342Z,100.00
2022-10-31T06:09:42.018Z,100.00
2022-10-31T06:12:08.557Z,100.00
2022-10-31T06:14:35.067Z,100.00
2022-10-31T06:17:01.730Z,100.00
2022-10-31T06:19:28.270Z,100.00
2022-10-31T06:21:54.870Z,100.00
2022-10-31T06:24:21.370Z,100.00
2022-10-31T06:26:47.879Z,100.00
2022-10-31T06:29:14.511Z,100.00
2022-10-31T06:31:41.053Z,100.00
2022-10-31T06:34:07.571Z,100.00
2022-10-31T06:36:34.100Z,100.00
2022-10-31T06:39:01.442Z,100.00
2022-10-31T06:41:28.026Z,100.00
2022-10-31T06:43:54.545Z,100.00
2022-10-31T06:46:22.215Z,100.00
2022-10-31T06:48:48.755Z,100.00
2022-10-31T06:51:16.516Z,100.00
2022-10-31T06:53:43.094Z,100.00
2022-10-31T06:56:09.740Z,100.00
2022-10-31T06:58:36.239Z,100.00
2022-10-31T07:01:02.855Z,100.00
2022-10-31T07:03:29.434Z,100.00
2022-10-31T07:05:57.579Z,100.00
2022-10-31T07:08:25.847Z,100.00
2022-10-31T07:10:57.434Z,100.00
2022-10-31T07:13:28.128Z,100.00
2022-10-31T07:15:59.870Z,100.00
2022-10-31T07:18:26.587Z,100.00
2022-10-31T07:20:53.974Z,100.00
2022-10-31T07:23:20.808Z,100.00
2022-10-31T07:25:47.433Z,100.00
2022-10-31T07:28:14.172Z,100.00
2022-10-31T07:30:41.087Z,100.00
2022-10-31T07:33:07.692Z,100.00
2022-10-31T07:35:35.844Z,100.00
2022-10-31T07:38:13.482Z,100.00
2022-10-31T07:40:40.540Z,100.00
2022-10-31T07:43:10.120Z,100.00
2022-10-31T07:45:39.898Z,100.00
2022-10-31T07:48:06.709Z,100.00
2022-10-31T07:50:36.719Z,100.00
2022-10-31T07:53:10.879Z,100.00
2022-10-31T07:55:38.636Z,100.00
2022-10-31T07:58:14.454Z,100.00
2022-10-31T08:00:43.247Z,100.00
2022-10-31T08:03:15.074Z,100.00
2022-10-31T08:05:42.357Z,100.00
2022-10-31T08:08:09.879Z,100.00
2022-10-31T08:10:37.241Z,100.00
2022-10-31T08:13:13.550Z,100.00
2022-10-31T08:15:42.934Z,100.00
2022-10-31T08:18:16.260Z,100.00
2022-10-31T08:20:44.199Z,100.00
2022-10-31T08:23:12.765Z,100.00
2022-10-31T08:25:40.535Z,100.00
2022-10-31T08:28:08.070Z,100.00
2022-10-31T08:30:36.699Z,100.00
2022-10-31T08:33:03.249Z,100.00
2022-10-31T08:35:30.010Z,100.00
2022-10-31T08:37:57.988Z,100.00
2022-10-31T08:40:25.697Z,100.00
2022-10-31T08:42:58.872Z,100.00
2022-10-31T08:45:25.728Z,100.00
2022-10-31T08:47:52.509Z,100.00
2022-10-31T08:50:19.410Z,100.00
2022-10-31T08:53:04.062Z,100.00
2022-10-31T08:55:32.179Z,100.00
2022-10-31T08:57:59.655Z,100.00
2022-10-31T09:00:26.716Z,100.00
2022-10-31T09:03:00.370Z,100.00
2022-10-31T09:05:27.155Z,100.00
2022-10-31T09:08:01.276Z,100.00
2022-10-31T09:10:29.307Z,100.00
2022-10-31T09:13:01.102Z,100.00
2022-10-31T09:15:29.132Z,100.00
2022-10-31T09:17:55.991Z,100.00
2022-10-31T09:20:23.023Z,100.00
2022-10-31T09:22:57.883Z,100.00
2022-10-31T09:25:24.624Z,100.00
2022-10-31T09:27:51.245Z,100.00
2022-10-31T09:30:18.339Z,100.00
2022-10-31T09:32:45.364Z,100.00
2022-10-31T09:37:43.478Z,100.00
2022-10-31T09:40:10.439Z,100.00
2022-10-31T09:42:43.279Z,100.00
2022-10-31T09:45:41.432Z,100.00
2022-10-31T09:48:35.669Z,100.00
2022-10-31T09:51:09.904Z,100.00
2022-10-31T09:53:45.395Z,100.00
2022-10-31T09:56:28.925Z,100.00
2022-10-31T09:59:01.649Z,100.00
2022-10-31T10:01:49.544Z,100.00
2022-10-31T10:04:34.802Z,100.00
2022-10-31T10:07:06.840Z,100.00
2022-10-31T10:09:33.410Z,100.00
2022-10-31T10:12:36.095Z,100.00
2022-10-31T10:15:29.575Z,100.00
2022-10-31T10:18:10.547Z,100.00
2022-10-31T10:20:43.023Z,100.00
2022-10-31T10:23:31.023Z,100.00
2022-10-31T10:26:16.900Z,100.00
2022-10-31T10:28:48.429Z,100.00
2022-10-31T10:31:20.658Z,100.00
2022-10-31T10:34:05.532Z,100.00
2022-10-31T10:36:49.015Z,100.00
2022-10-31T10:39:21.501Z,100.00
2022-10-31T10:42:08.615Z,100.00
2022-10-31T10:44:58.237Z,100.00
2022-10-31T10:47:41.476Z,100.00
2022-10-31T10:50:24.801Z,100.00
2022-10-31T10:53:09.150Z,100.00
2022-10-31T10:55:54.495Z,100.00
2022-10-31T10:58:21.164Z,100.00
2022-10-31T11:00:48.995Z,100.00
2022-10-31T11:03:17.160Z,100.00
2022-10-31T11:06:23.180Z,100.00
2022-10-31T11:08:50.831Z,100.00
2022-10-31T11:11:31.146Z,100.00
2022-10-31T11:14:06.144Z,100.00
2022-10-31T11:16:40.401Z,100.00
2022-10-31T11:19:22.687Z,100.00
2022-10-31T11:21:53.907Z,100.00
2022-10-31T11:24:23.797Z,100.00
2022-10-31T11:26:52.779Z,100.00
2022-10-31T11:29:25.927Z,100.00
2022-10-31T11:31:55.545Z,100.00
2022-10-31T11:34:33.041Z,100.00
2022-10-31T11:37:30.269Z,100.00
2022-10-31T11:40:05.951Z,100.00
2022-10-31T11:42:41.337Z,100.00
2022-10-31T11:45:34.962Z,100.00
2022-10-31T11:48:03.641Z,100.00
2022-10-31T11:50:42.848Z,100.00
2022-10-31T11:53:19.417Z,99.95
2022-10-31T11:55:47.246Z,99.43
2022-10-31T11:58:25.575Z,100.00
2022-10-31T12:00:54.991Z,100.00
2022-10-31T12:03:24.213Z,100.00
2022-10-31T12:06:15.660Z,99.59
2022-10-31T12:08:43.200Z,100.00
2022-10-31T12:11:31.217Z,100.00
2022-10-31T12:14:04.198Z,98.04
2022-10-31T12:16:55.613Z,98.10
2022-10-31T12:19:34.382Z,99.04
2022-10-31T12:22:07.512Z,98.76
2022-10-31T12:24:57.588Z,97.58
2022-10-31T12:27:38.324Z,98.58
2022-10-31T12:30:04.818Z,96.93
2022-10-31T12:32:49.741Z,95.62
2022-10-31T12:35:22.358Z,96.35
2022-10-31T12:38:17.704Z,96.92
2022-10-31T12:40:59.405Z,95.50
2022-10-31T12:43:25.955Z,94.68
2022-10-31T12:45:58.073Z,95.13
2022-10-31T12:48:46.137Z,93.23
2022-10-31T12:51:21.775Z,93.09
2022-10-31T12:54:14.568Z,91.89
2022-10-31T12:57:04.861Z,90.46
2022-10-31T12:59:36.841Z,91.12
2022-10-31T13:02:42.855Z,90.20
2022-10-31T13:05:17.124Z,88.80
2022-10-31T13:07:49.332Z,88.55
2022-10-31T13:10:36.721Z,89.25
2022-10-31T13:13:25.886Z,88.71
2022-10-31T13:15:58.549Z,88.58
2022-10-31T13:18:32.859Z,89.20
2022-10-31T13:21:03.093Z,89.12
2022-10-31T13:23:50.402Z,89.60
2022-10-31T13:26:43.118Z,89.60
2022-10-31T13:29:26.901Z,89.26
2022-10-31T13:31:57.194Z,88.51
2022-10-31T13:34:41.780Z,87.08
2022-10-31T13:38:01.216Z,86.96
2022-10-31T13:40:37.785Z,85.33
2022-10-31T13:43:20.506Z,85.22
2022-10-31T13:45:57.364Z,84.96
2022-10-31T13:48:26.557Z,85.54
2022-10-31T13:50:59.081Z,85.94
2022-10-31T13:53:46.541Z,86.68
2022-10-31T13:56:19.710Z,86.54
2022-10-31T13:59:14.106Z,86.75
2022-10-31T14:01:52.108Z,86.24
2022-10-31T14:04:25.462Z,86.48
2022-10-31T14:07:10.291Z,87.28
2022-10-31T14:09:41.380Z,87.29
2022-10-31T14:12:22.919Z,87.41
2022-10-31T14:14:53.263Z,88.04
2022-10-31T14:17:33.921Z,89.00
2022-10-31T14:20:55.074Z,89.92
2022-10-31T14:23:45.489Z,90.81
2022-10-31T14:26:32.190Z,91.35
2022-10-31T14:29:15.950Z,91.92
2022-10-31T14:31:45.930Z,93.09
2022-10-31T14:34:12.465Z,93.97
2022-10-31T14:36:47.154Z,94.82
2022-10-31T14:39:39.815Z,95.12
2022-10-31T14:42:39.696Z,94.86
2022-10-31T14:45:31.573Z,95.64
2022-10-31T14:48:42.832Z,95.30
2022-10-31T14:51:43.196Z,95.64
2022-10-31T14:54:19.082Z,95.19
2022-10-31T14:56:55.615Z,94.76
2022-10-31T14:59:31.606Z,94.80
2022-10-31T15:02:02.618Z,93.71
2022-10-31T15:04:33.594Z,94.07
2022-10-31T15:07:23.272Z,93.74
2022-10-31T15:10:07.208Z,93.18
2022-10-31T15:12:38.603Z,92.79
2022-10-31T15:15:27.293Z,92.78
2022-10-31T15:18:00.578Z,93.28
2022-10-31T15:20:32.093Z,94.02
2022-10-31T15:23:00.171Z,94.99
2022-10-31T15:25:35.767Z,96.11
2022-10-31T15:28:02.673Z,97.51
2022-10-31T15:30:30.464Z,98.43
2022-10-31T15:32:59.180Z,98.98
2022-10-31T15:35:31.400Z,100.00
2022-10-31T15:37:59.712Z,100.00
2022-10-31T15:40:29.316Z,100.00
2022-10-31T15:43:03.056Z,100.00
2022-10-31T15:45:31.511Z,100.00
2022-10-31T15:48:02.058Z,100.00
2022-10-31T15:50:42.716Z,100.00
2022-10-31T15:53:20.492Z,100.00
2022-10-31T15:56:00.133Z,100.00
2022-10-31T15:58:29.263Z,100.00
2022-10-31T16:01:07.598Z,100.00
2022-10-31T16:03:34.845Z,100.00
2022-10-31T16:06:07.532Z,100.00
2022-10-31T16:08:41.393Z,100.00
2022-10-31T16:11:14.814Z,100.00
2022-10-31T16:14:05.084Z,100.00
2022-10-31T16:16:36.204Z,100.00
2022-10-31T16:19:08.635Z,100.00
2022-10-31T16:21:42.358Z,100.00
2022-10-31T16:24:35.780Z,100.00
2022-10-31T16:27:09.716Z,100.00
2022-10-31T16:29:51.813Z,100.00
2022-10-31T16:32:36.390Z,100.00
2022-10-31T16:35:24.893Z,100.00
2022-10-31T16:37:51.644Z,100.00
2022-10-31T16:40:18.704Z,100.00
2022-10-31T16:42:46.549Z,100.00
2022-10-31T16:45:22.397Z,100.00
2022-10-31T16:47:49.736Z,100.00
2022-10-31T16:50:20.692Z,100.00
2022-10-31T16:55:36.015Z,100.00
2022-10-31T16:58:03.654Z,100.00
2022-10-31T17:00:30.285Z,100.00
2022-10-31T17:02:57.731Z,100.00
2022-10-31T17:05:30.802Z,100.00
2022-10-31T17:07:58.306Z,100.00
2022-10-31T17:10:26.231Z,100.00
2022-10-31T17:12:53.523Z,100.00
2022-10-31T17:15:26.216Z,100.00
2022-10-31T17:17:53.449Z,100.00
2022-10-31T17:20:23.733Z,100.00
2022-10-31T17:22:50.294Z,100.00
2022-10-31T17:25:21.211Z,100.00
2022-10-31T17:27:47.770Z,100.00
2022-10-31T17:30:15.362Z,100.00
2022-10-31T17:32:42.704Z,100.00
2022-10-31T17:35:10.566Z,100.00
2022-10-31T17:37:37.341Z,100.00
2022-10-31T17:40:04.178Z,100.00
2022-10-31T17:42:30.867Z,100.00
2022-10-31T17:44:57.483Z,100.00
2022-10-31T17:47:24.148Z,100.00
2022-10-31T17:49:50.812Z,100.00
2022-10-31T17:52:17.412Z,100.00
2022-10-31T17:54:44.260Z,100.00
2022-10-31T17:57:10.863Z,100.00
2022-10-31T17:59:37.495Z,100.00
2022-10-31T18:02:08.843Z,100.00
2022-10-31T18:04:36.113Z,100.00
2022-10-31T18:07:02.840Z,100.00
2022-10-31T18:09:29.420Z,100.00
2022-10-31T18:11:56.171Z,100.00
2022-10-31T18:14:22.772Z,100.00
2022-10-31T18:16:49.855Z,100.00
2022-10-31T18:19:16.486Z,100.00
2022-10-31T18:21:44.589Z,100.00
2022-10-31T18:24:11.277Z,100.00
2022-10-31T18:26:38.145Z,100.00
2022-10-31T18:29:04.810Z,100.00
2022-10-31T18:31:32.152Z,100.00
2022-10-31T18:33:58.744Z,100.00
2022-10-31T18:36:25.805Z,100.00
2022-10-31T18:38:52.500Z,100.00
2022-10-31T18:41:19.564Z,100.00
2022-10-31T18:43:46.174Z,100.00
2022-10-31T18:46:14.582Z,100.00
2022-10-31T18:48:42.172Z,100.00
2022-10-31T18:51:13.298Z,100.00
2022-10-31T18:53:40.654Z,100.00
2022-10-31T18:56:11.487Z,100.00
2022-10-31T18:58:38.128Z,100.00
2022-10-31T19:01:09.936Z,100.00
2022-10-31T19:03:36.995Z,100.00
2022-10-31T19:06:04.977Z,100.00
2022-10-31T19:08:31.985Z,100.00
2022-10-31T19:11:12.862Z,100.00
2022-10-31T19:13:40.342Z,100.00
2022-10-31T19:16:12.712Z,100.00
2022-10-31T19:18:40.065Z,100.00
2022-10-31T19:21:15.431Z,100.00
2022-10-31T19:23:42.952Z,100.00
2022-10-31T19:26:10.080Z,100.00
2022-10-31T19:28:38.579Z,100.00
2022-10-31T19:31:05.847Z,100.00
2022-10-31T19:33:35.892Z,100.00
2022-10-31T19:36:09.738Z,100.00
2022-10-31T19:38:38.466Z,100.00
2022-10-31T19:41:07.751Z,100.00
2022-10-31T19:43:34.836Z,100.00
2022-10-31T19:46:03.732Z,100.00
2022-10-31T19:48:30.916Z,100.00
2022-10-31T19:51:02.513Z,100.00
2022-10-31T19:53:30.788Z,100.00
2022-10-31T19:55:58.310Z,100.00
2022-10-31T19:58:25.350Z,100.00
2022-10-31T20:00:52.199Z,100.00
2022-10-31T20:03:22.313Z,100.00
2022-10-31T20:05:50.765Z,100.00
2022-10-31T20:08:19.849Z,100.00
2022-10-31T20:11:02.112Z,100.00
2022-10-31T20:13:30.079Z,100.00
2022-10-31T20:16:07.774Z,100.00
2022-10-31T20:18:35.928Z,100.00
2022-10-31T20:21:08.155Z,100.00
2022-10-31T20:23:35.168Z,100.00
2022-10-31T20:26:02.025Z,100.00
2022-10-31T20:28:33.012Z,100.00
2022-10-31T20:31:00.797Z,100.00
2022-10-31T20:33:27.768Z,100.00
2022-10-31T20:35:54.331Z,100.00
2022-10-31T20:38:20.901Z,100.00
2022-10-31T20:40:47.519Z,100.00
2022-10-31T20:43:15.054Z,100.00
2022-10-31T20:45:41.931Z,100.00
2022-10-31T20:48:08.477Z,100.00
2022-10-31T20:50:38.509Z,100.00
2022-10-31T20:53:05.965Z,100.00
2022-10-31T20:55:32.571Z,100.00
2022-10-31T20:57:59.212Z,100.00
2022-10-31T21:00:25.838Z,100.00
2022-10-31T21:02:52.426Z,100.00
2022-10-31T21:05:18.973Z,100.00
2022-10-31T21:07:45.640Z,100.00
2022-10-31T21:10:15.199Z,100.00
2022-10-31T21:12:44.984Z,100.00
2022-10-31T21:15:13.890Z,100.00
2022-10-31T21:17:41.529Z,100.00
2022-10-31T21:20:10.542Z,100.00
2022-10-31T21:22:37.620Z,100.00
2022-10-31T21:25:04.685Z,100.00
2022-10-31T21:27:31.427Z,100.00
2022-10-31T21:29:58.392Z,100.00
2022-10-31T21:32:24.992Z,100.00
2022-10-31T21:34:51.589Z,100.00
2022-10-31T21:37:18.217Z,100.00
2022-10-31T21:39:50.454Z,100.00
2022-10-31T21:42:21.350Z,100.00
2022-10-31T21:44:51.658Z,100.00
2022-10-31T21:47:18.185Z,100.00
2022-10-31T21:49:44.894Z,100.00
2022-10-31T21:52:11.512Z,100.00
2022-10-31T21:54:38.180Z,100.00
2022-10-31T21:57:04.877Z,100.00
2022-10-31T21:59:31.588Z,100.00
2022-10-31T22:02:00.501Z,100.00
2022-10-31T22:04:28.097Z,100.00
2022-10-31T22:06:54.680Z,100.00
2022-10-31T22:09:23.250Z,100.00
2022-10-31T22:11:49.781Z,100.00
2022-10-31T22:14:16.360Z,100.00
2022-10-31T22:16:43.401Z,100.00
2022-10-31T22:19:12.395Z,100.00
2022-10-31T22:21:44.931Z,100.00
2022-10-31T22:24:11.730Z,100.00
2022-10-31T22:26:39.380Z,100.00
2022-10-31T22:29:09.992Z,100.00
2022-10-31T22:31:37.951Z,100.00
2022-10-31T22:34:04.509Z,100.00
2022-10-31T22:36:31.512Z,100.00
2022-10-31T22:38:58.714Z,100.00
2022-10-31T22:41:27.983Z,100.00
2022-10-31T22:43:56.121Z,100.00
2022-10-31T22:46:25.236Z,100.00
2022-10-31T22:48:54.520Z,100.00
2022-10-31T22:51:23.778Z,100.00
2022-10-31T22:53:50.823Z,100.00
2022-10-31T22:56:19.996Z,100.00
2022-10-31T22:58:47.609Z,100.00
2022-10-31T23:01:20.176Z,100.00
2022-10-31T23:03:47.796Z,100.00
2022-10-31T23:06:21.157Z,100.00
2022-10-31T23:08:49.116Z,100.00
2022-10-31T23:11:22.283Z,100.00
2022-10-31T23:14:09.801Z,100.00
2022-10-31T23:16:51.041Z,100.00
2022-10-31T23:19:18.765Z,100.00
2022-10-31T23:22:00.109Z,100.00
2022-10-31T23:24:37.617Z,100.00
2022-10-31T23:27:34.413Z,100.00
2022-10-31T23:30:01.507Z,100.00
2022-10-31T23:32:31.035Z,100.00
2022-10-31T23:34:59.467Z,100.00
2022-10-31T23:37:28.953Z,100.00
2022-10-31T23:39:55.584Z,100.00
2022-10-31T23:42:23.106Z,100.00
2022-10-31T23:44:50.036Z,100.00
2022-10-31T23:47:17.314Z,100.00
2022-10-31T23:49:44.032Z,100.00
2022-10-31T23:52:11.797Z,100.00
2022-10-31T23:54:38.722Z,100.00
2022-10-31T23:57:05.892Z,100.00
2022-10-31T23:59:34.504Z,100.00
